Terminal Aerodrome Forecast
Issued by NWS

Home | Current Version | Previous Version | Text Only | Print | Product List | Glossary On
Versions: 1 2 3 4 5 6 7 8 9 10 11 12 13 14 15 16 17 18
078
FTUS43 KLSX 101129
TAFUIN
TAF
KUIN 101129Z 1012/1112 VRB03KT P6SM OVC060
     FM101700 15008KT P6SM OVC050
     FM110300 14012KT P6SM OVC080
     FM110600 15012KT P6SM OVC140 WS014/23040KT=

USA.gov is the U.S. government's official web portal to all federal, state and local government web resources and services.